Time;durP1;ratioP1;P1;durP2;ratioP2;P2;SDS_P1;SDS_P2;PMS_P1;PMS_P2;Temp;Humidity;BMP_temperature;BMP_pressure;BME280_temperature;BME280_humidity;BME280_pressure;Samples;Min_cycle;Max_cycle;Signal;HPM_P1;HPM_P2
2023/09/06 00:00:44;;;;;;;5.87;4.40;;;;;;;21.83;50.28;97815.06;5072179;28;20281;-71
2023/09/06 00:03:10;;;;;;;5.43;4.93;;;;;;;21.76;50.53;97811.59;5090310;28;20196;-71
2023/09/06 00:05:41;;;;;;;5.37;4.87;;;;;;;21.72;50.48;97813.03;5068905;28;20443;-71
2023/09/06 00:08:08;;;;;;;5.37;4.73;;;;;;;21.70;50.43;97799.91;5075736;28;20468;-70
2023/09/06 00:10:33;;;;;;;7.20;4.50;;;;;;;21.69;50.29;97802.78;5090226;28;20444;-72
2023/09/06 00:12:59;;;;;;;4.97;4.47;;;;;;;21.71;50.54;97801.56;5092844;28;20423;-70
2023/09/06 00:15:24;;;;;;;5.40;4.90;;;;;;;21.71;50.79;97812.22;5074484;28;20273;-70
2023/09/06 00:17:50;;;;;;;7.27;4.60;;;;;;;21.73;50.33;97809.34;5081774;28;20181;-70
2023/09/06 00:20:19;;;;;;;6.40;4.40;;;;;;;21.64;50.76;97806.06;5091761;28;20281;-71
2023/09/06 00:22:46;;;;;;;5.07;4.37;;;;;;;21.51;50.89;97798.91;5092216;28;20217;-71
2023/09/06 00:25:11;;;;;;;8.27;4.83;;;;;;;21.52;50.46;97797.88;5085399;28;20444;-71
2023/09/06 00:27:37;;;;;;;7.50;4.67;;;;;;;21.51;50.88;97801.59;5080290;28;20435;-70
2023/09/06 00:30:03;;;;;;;6.07;5.00;;;;;;;21.51;50.79;97796.25;5085437;28;20259;-69
2023/09/06 00:32:28;;;;;;;5.97;4.70;;;;;;;21.48;50.62;97804.66;5074545;28;20198;-71
2023/09/06 00:34:54;;;;;;;5.60;5.00;;;;;;;21.47;50.69;97800.34;5090404;28;20237;-70
2023/09/06 00:37:20;;;;;;;5.60;4.73;;;;;;;21.47;50.54;97792.34;5086091;28;20297;-71
2023/09/06 00:39:45;;;;;;;5.30;4.80;;;;;;;21.46;50.94;97793.38;5082370;28;20887;-71
2023/09/06 00:42:11;;;;;;;6.93;4.77;;;;;;;21.37;50.74;97795.44;5084322;28;20201;-70
2023/09/06 00:44:36;;;;;;;4.67;4.27;;;;;;;21.31;51.17;97799.75;5083268;28;20544;-71
2023/09/06 00:47:02;;;;;;;7.17;5.03;;;;;;;21.34;50.89;97801.19;5079552;28;20186;-70
2023/09/06 00:49:27;;;;;;;5.40;4.43;;;;;;;21.30;50.81;97799.97;5086237;28;20182;-71
2023/09/06 00:51:53;;;;;;;6.47;5.10;;;;;;;21.29;51.22;97796.50;5062535;28;20190;-71
2023/09/06 00:54:18;;;;;;;7.53;4.63;;;;;;;21.30;51.22;97799.97;5065966;28;20174;-70
2023/09/06 00:56:44;;;;;;;5.60;4.70;;;;;;;21.28;50.94;97813.50;5090190;28;20745;-73
2023/09/06 00:59:12;;;;;;;5.50;4.93;;;;;;;21.26;50.79;97810.22;5089885;28;20233;-71
2023/09/06 01:01:38;;;;;;;7.00;4.87;;;;;;;21.21;50.90;97806.53;5087062;28;20189;-70
2023/09/06 01:04:03;;;;;;;4.83;4.33;;;;;;;21.13;50.66;97800.38;5078436;28;20423;-72
2023/09/06 01:06:32;;;;;;;5.60;4.83;;;;;;;21.10;50.93;97799.97;5086244;28;20293;-71
2023/09/06 01:08:58;;;;;;;5.60;5.00;;;;;;;21.08;50.94;97802.84;5064850;28;20174;-71
2023/09/06 01:11:26;;;;;;;5.30;4.77;;;;;;;21.05;50.88;97797.09;5077428;28;20428;-72
2023/09/06 01:13:54;;;;;;;6.33;4.80;;;;;;;21.00;51.22;97795.88;5088040;28;20430;-72
2023/09/06 01:16:46;;;;;;;5.80;4.80;;;;;;;20.93;51.16;97788.91;5085203;28;20808;-72
2023/09/06 01:19:13;;;;;;;5.03;4.60;;;;;;;20.92;51.29;97789.94;5075980;28;20903;-71
2023/09/06 01:21:47;;;;;;;5.90;4.60;;;;;;;20.89;50.88;97796.50;5065425;28;20516;-70
2023/09/06 01:24:14;;;;;;;5.23;4.57;;;;;;;20.86;51.39;97795.03;5066659;28;20448;-70
2023/09/06 01:26:39;;;;;;;5.60;4.90;;;;;;;20.80;51.11;97793.22;5088458;28;20542;-71
2023/09/06 01:29:05;;;;;;;4.97;4.47;;;;;;;20.80;51.72;97795.03;5080353;28;20448;-71
2023/09/06 01:31:30;;;;;;;5.13;4.63;;;;;;;20.80;51.17;97787.06;5079450;28;20201;-71
2023/09/06 01:33:56;;;;;;;6.47;5.10;;;;;;;20.78;51.65;97786.47;5089610;28;20819;-70
2023/09/06 01:36:21;;;;;;;5.63;4.60;;;;;;;20.81;51.27;97783.38;5089025;28;20220;-71
2023/09/06 01:38:47;;;;;;;8.20;4.97;;;;;;;20.81;51.03;97776.22;5083598;28;21964;-71
2023/09/06 01:41:12;;;;;;;7.13;5.13;;;;;;;20.83;51.22;97781.31;5072670;28;20205;-71
2023/09/06 01:43:38;;;;;;;6.37;4.47;;;;;;;20.78;51.14;97781.13;5072472;28;20219;-71
2023/09/06 01:46:03;;;;;;;5.63;4.23;;;;;;;20.77;50.99;97782.16;5083071;28;20198;-71
2023/09/06 01:48:29;;;;;;;6.30;5.13;;;;;;;20.72;51.30;97778.22;5082822;28;20226;-72
2023/09/06 01:50:55;;;;;;;7.07;4.93;;;;;;;20.64;51.14;97775.75;5085104;28;20189;-71
2023/09/06 01:53:22;;;;;;;6.23;4.53;;;;;;;20.59;51.40;97780.88;5087229;28;20227;-70
2023/09/06 01:55:48;;;;;;;9.93;5.27;;;;;;;20.52;51.56;97780.84;5087511;28;20497;-71
2023/09/06 01:58:13;;;;;;;5.40;4.77;;;;;;;20.55;51.42;97779.63;5045235;28;20933;-71
2023/09/06 02:00:39;;;;;;;6.87;4.73;;;;;;;20.56;51.20;97781.25;5086143;28;20207;-70
2023/09/06 02:03:09;;;;;;;5.77;5.17;;;;;;;20.56;51.46;97779.44;5080766;28;20196;-70
2023/09/06 02:05:35;;;;;;;5.63;4.50;;;;;;;20.59;51.51;97783.53;5088188;28;20205;-72
2023/09/06 02:08:01;;;;;;;6.60;5.10;;;;;;;20.57;51.20;97780.25;5083680;28;20861;-72
2023/09/06 02:10:27;;;;;;;5.93;4.67;;;;;;;20.47;51.34;97779.81;5089291;28;20586;-72
2023/09/06 02:12:52;;;;;;;7.60;5.10;;;;;;;20.46;51.35;97783.50;5079337;28;20466;-73
2023/09/06 02:15:17;;;;;;;5.23;4.73;;;;;;;20.44;51.42;97782.88;5088621;28;20635;-72
2023/09/06 02:17:44;;;;;;;6.30;4.77;;;;;;;20.41;51.09;97782.25;5085178;28;20228;-70
2023/09/06 02:20:20;;;;;;;7.40;5.27;;;;;;;20.38;51.48;97781.84;5075246;28;20331;-71
2023/09/06 02:22:55;;;;;;;8.23;5.30;;;;;;;20.29;51.66;97781.19;5072390;28;20423;-70
2023/09/06 02:25:24;;;;;;;6.37;4.37;;;;;;;20.25;51.47;97783.44;5089379;28;20853;-71
2023/09/06 02:27:50;;;;;;;5.30;4.80;;;;;;;20.25;51.77;97778.13;5078054;28;20423;-71
2023/09/06 02:30:15;;;;;;;5.60;5.07;;;;;;;20.25;51.60;97779.97;5088082;28;20473;-70
2023/09/06 02:32:40;;;;;;;5.50;5.00;;;;;;;20.24;51.71;97783.66;5086967;28;20236;-70
2023/09/06 02:35:07;;;;;;;6.87;4.80;;;;;;;20.23;51.71;97782.81;5088339;28;20209;-71
2023/09/06 02:37:35;;;;;;;6.13;4.50;;;;;;;20.20;51.73;97780.59;5087288;28;20193;-70
2023/09/06 02:40:06;;;;;;;5.70;5.13;;;;;;;20.22;51.46;97783.03;5072659;28;20464;-70
2023/09/06 02:42:32;;;;;;;5.30;4.43;;;;;;;20.21;51.40;97792.03;5084659;28;20512;-70
2023/09/06 02:44:57;;;;;;;6.40;4.90;;;;;;;20.14;51.37;97785.88;5080834;28;20535;-70
2023/09/06 02:47:28;;;;;;;5.83;4.67;;;;;;;20.12;51.43;97783.41;5077675;28;20261;-70
2023/09/06 02:49:55;;;;;;;8.57;5.30;;;;;;;20.13;51.42;97784.25;5083139;28;20689;-70
2023/09/06 02:52:28;;;;;;;6.80;5.00;;;;;;;20.15;51.44;97784.88;5070889;28;20474;-70
2023/09/06 02:54:57;;;;;;;5.83;5.03;;;;;;;20.15;51.33;97782.22;5079790;28;20448;-69
2023/09/06 02:57:24;;;;;;;5.93;4.37;;;;;;;20.14;51.37;97781.38;5084232;28;20510;-70
2023/09/06 02:59:51;;;;;;;5.77;4.70;;;;;;;20.09;51.20;97779.31;5071117;28;21180;-70
2023/09/06 03:02:18;;;;;;;5.93;5.33;;;;;;;20.02;51.16;97783.81;5072157;28;20417;-69
2023/09/06 03:04:43;;;;;;;5.70;4.40;;;;;;;19.95;51.55;97781.13;5077841;28;20477;-70
2023/09/06 03:07:09;;;;;;;5.30;4.80;;;;;;;19.90;51.69;97785.41;5077641;28;20427;-70
2023/09/06 03:09:35;;;;;;;5.30;4.80;;;;;;;19.89;51.84;97778.44;5082282;28;20184;-73
2023/09/06 03:12:14;;;;;;;5.30;4.80;;;;;;;19.86;51.67;97784.09;5084124;28;20788;-70
2023/09/06 03:14:44;;;;;;;6.50;5.00;;;;;;;19.84;51.87;97780.81;5079440;28;20428;-70
2023/09/06 03:17:13;;;;;;;6.00;5.37;;;;;;;19.86;51.67;97782.28;5084276;28;20436;-71
2023/09/06 03:19:40;;;;;;;9.67;5.10;;;;;;;19.85;51.74;97783.28;5082723;28;20464;-70
2023/09/06 03:22:15;;;;;;;7.60;4.50;;;;;;;19.80;51.89;97775.88;5074994;28;20443;-72
2023/09/06 03:24:41;;;;;;;7.93;5.43;;;;;;;19.85;51.76;97788.59;5087765;28;20508;-70
2023/09/06 03:27:15;;;;;;;5.67;5.13;;;;;;;19.91;51.78;97785.19;5077140;28;20436;-72
2023/09/06 03:29:41;;;;;;;6.50;4.87;;;;;;;20.00;51.73;97793.81;5076480;28;20436;-71
2023/09/06 03:32:10;;;;;;;5.33;4.20;;;;;;;20.08;51.29;97793.63;5090071;28;20497;-72
2023/09/06 03:34:36;;;;;;;5.67;5.00;;;;;;;20.14;50.84;97789.34;5080788;28;20301;-71
2023/09/06 03:37:05;;;;;;;5.10;4.60;;;;;;;20.16;50.62;97789.19;5085569;28;20448;-69
2023/09/06 03:39:37;;;;;;;8.83;5.03;;;;;;;20.04;50.40;97787.06;5084050;28;20824;-72
2023/09/06 03:42:08;;;;;;;5.97;4.90;;;;;;;19.95;50.80;97791.75;5089829;28;20470;-72
2023/09/06 03:44:34;;;;;;;6.37;4.97;;;;;;;19.92;51.36;97792.16;5069766;28;20440;-71
2023/09/06 03:47:00;;;;;;;5.60;5.10;;;;;;;19.89;50.93;97789.06;5082310;28;20447;-71
2023/09/06 03:49:26;;;;;;;5.00;4.50;;;;;;;19.80;51.07;97791.84;5090009;28;20488;-71
2023/09/06 03:51:52;;;;;;;5.50;5.00;;;;;;;19.75;51.48;97788.13;5088881;28;20559;-71
2023/09/06 03:54:18;;;;;;;5.23;4.73;;;;;;;19.68;51.42;97788.09;5080726;28;20427;-71
2023/09/06 03:56:43;;;;;;;8.37;4.83;;;;;;;19.67;51.33;97786.47;5084739;28;20694;-71
2023/09/06 03:59:09;;;;;;;5.60;4.90;;;;;;;19.67;51.55;97789.13;5084690;28;20690;-70
2023/09/06 04:01:35;;;;;;;5.30;4.80;;;;;;;19.66;51.36;97792.78;5081479;28;20218;-69
2023/09/06 04:04:01;;;;;;;6.10;5.03;;;;;;;19.61;51.56;97788.06;5088110;28;20205;-70
2023/09/06 04:06:28;;;;;;;5.23;4.73;;;;;;;19.59;51.61;97783.97;5075777;28;20644;-71
2023/09/06 04:08:54;;;;;;;10.23;5.30;;;;;;;19.53;51.46;97782.91;5080841;28;20433;-70
2023/09/06 04:11:20;;;;;;;5.73;5.20;;;;;;;19.43;51.50;97785.91;5088228;28;20538;-71
2023/09/06 04:13:45;;;;;;;7.27;5.80;;;;;;;19.37;51.88;97786.72;5073151;28;20191;-72
2023/09/06 04:16:10;;;;;;;8.23;5.50;;;;;;;19.31;51.81;97776.84;5085169;28;20732;-70
2023/09/06 04:18:36;;;;;;;7.30;5.40;;;;;;;19.26;52.06;97777.44;5063714;28;20693;-71
2023/09/06 04:21:07;;;;;;;7.23;4.87;;;;;;;19.29;52.23;97778.88;5085405;28;20246;-70
2023/09/06 04:23:33;;;;;;;7.83;5.43;;;;;;;19.28;52.23;97790.53;5091060;28;20235;-70
2023/09/06 04:26:00;;;;;;;6.77;5.17;;;;;;;19.26;52.50;97792.56;5089250;28;20546;-72
2023/09/06 04:28:26;;;;;;;7.27;6.10;;;;;;;19.24;52.14;97791.94;5072496;28;20182;-72
2023/09/06 04:30:52;;;;;;;7.50;4.77;;;;;;;19.20;52.03;97791.50;5067118;28;20462;-70
2023/09/06 04:33:17;;;;;;;5.73;5.13;;;;;;;19.21;52.28;97792.31;5053615;28;20186;-71
2023/09/06 04:35:44;;;;;;;6.93;5.10;;;;;;;19.22;52.42;97792.09;5089410;28;20479;-71
2023/09/06 04:38:14;;;;;;;5.30;4.80;;;;;;;19.28;52.39;97795.84;5089537;28;20189;-71
2023/09/06 04:40:43;;;;;;;10.93;6.63;;;;;;;19.32;52.39;97805.06;5077823;28;20416;-71
2023/09/06 04:43:09;;;;;;;8.60;5.20;;;;;;;19.36;52.09;97803.66;5079718;28;20490;-73
2023/09/06 04:45:38;;;;;;;6.80;5.60;;;;;;;19.32;51.83;97794.44;5079617;28;20463;-71
2023/09/06 04:48:10;;;;;;;7.17;5.47;;;;;;;19.23;52.21;97804.38;5088573;28;20436;-71
2023/09/06 04:50:39;;;;;;;5.97;5.37;;;;;;;19.13;52.14;97807.41;5087506;28;20433;-71
2023/09/06 04:53:06;;;;;;;6.43;5.30;;;;;;;19.12;52.34;97811.06;5059850;28;20514;-70
2023/09/06 04:55:35;;;;;;;10.87;5.53;;;;;;;19.17;52.33;97803.31;5060066;28;20455;-70
2023/09/06 04:58:07;;;;;;;6.13;5.53;;;;;;;19.21;52.15;97803.78;5076183;28;20439;-70
2023/09/06 05:00:37;;;;;;;9.03;5.87;;;;;;;19.25;52.15;97806.88;5084785;28;20532;-69
2023/09/06 05:03:04;;;;;;;8.83;5.13;;;;;;;19.17;52.24;97808.63;5085160;28;21005;-70
2023/09/06 05:05:30;;;;;;;6.57;5.87;;;;;;;19.17;51.94;97818.44;5084004;28;20485;-70
2023/09/06 05:07:55;;;;;;;9.30;6.10;;;;;;;19.13;52.13;97807.41;5080170;28;20499;-69
2023/09/06 05:10:21;;;;;;;7.20;6.10;;;;;;;19.13;52.39;97814.53;5081904;28;20182;-70
2023/09/06 05:12:46;;;;;;;7.47;5.13;;;;;;;19.09;52.49;97816.75;5089356;28;20181;-71
2023/09/06 05:15:13;;;;;;;9.07;6.00;;;;;;;19.06;52.80;97818.97;5081304;28;20209;-71
2023/09/06 05:17:42;;;;;;;7.57;5.80;;;;;;;19.10;52.67;97815.75;5064415;28;20195;-71
2023/09/06 05:20:32;;;;;;;8.23;6.00;;;;;;;19.14;52.98;97816.19;5077834;28;20986;-71
2023/09/06 05:23:12;;;;;;;8.13;5.87;;;;;;;19.11;52.72;97819.22;5053049;28;20808;-71
2023/09/06 05:25:38;;;;;;;7.87;5.40;;;;;;;19.15;52.91;97821.28;5083025;28;20452;-70
2023/09/06 05:28:05;;;;;;;13.17;5.70;;;;;;;19.12;52.85;97821.69;5075882;28;20431;-71
2023/09/06 05:30:34;;;;;;;10.60;5.50;;;;;;;19.09;52.96;97827.38;5085315;28;20420;-70
2023/09/06 05:32:59;;;;;;;12.00;6.50;;;;;;;19.12;53.11;97832.31;5084937;28;20427;-71
2023/09/06 05:35:25;;;;;;;11.43;6.23;;;;;;;19.21;53.36;97826.84;5071777;28;21094;-71
2023/09/06 05:37:51;;;;;;;6.90;6.00;;;;;;;19.30;53.27;97828.34;5083521;28;20210;-71
2023/09/06 05:40:22;;;;;;;6.97;6.17;;;;;;;19.37;53.35;97829.22;5081026;28;20213;-71
2023/09/06 05:42:48;;;;;;;7.43;6.20;;;;;;;19.43;53.10;97832.94;5090230;28;20197;-71
2023/09/06 05:45:13;;;;;;;7.90;5.70;;;;;;;19.51;53.24;97827.47;5079840;28;20451;-70
2023/09/06 05:47:39;;;;;;;9.07;5.83;;;;;;;19.63;53.06;97825.09;5078865;28;20925;-71
2023/09/06 05:50:05;;;;;;;6.40;5.70;;;;;;;19.77;53.17;97829.50;5088663;28;20182;-71
2023/09/06 05:52:31;;;;;;;7.73;6.23;;;;;;;19.93;53.32;97827.53;5066126;28;20198;-72
2023/09/06 05:54:56;;;;;;;9.93;5.70;;;;;;;20.10;53.16;97820.03;5077718;28;20519;-71
2023/09/06 05:57:22;;;;;;;10.13;6.00;;;;;;;20.25;52.72;97819.91;5075445;28;20233;-71
2023/09/06 05:59:47;;;;;;;10.00;5.97;;;;;;;20.30;52.18;97816.63;5072644;28;20217;-72
2023/09/06 06:02:14;;;;;;;14.10;7.00;;;;;;;20.30;52.11;97827.28;5084808;28;20631;-71
2023/09/06 06:04:41;;;;;;;7.87;5.97;;;;;;;20.40;52.09;97823.22;5061187;28;20194;-70
2023/09/06 06:07:06;;;;;;;12.93;7.17;;;;;;;20.46;51.89;97820.78;5086598;28;20459;-70
2023/09/06 06:09:33;;;;;;;9.23;6.20;;;;;;;20.58;51.91;97824.47;5082721;28;20864;-69
2023/09/06 06:11:58;;;;;;;7.53;6.13;;;;;;;20.70;51.67;97828.19;5085789;28;20724;-70
2023/09/06 06:14:28;;;;;;;20.70;6.90;;;;;;;20.85;51.82;97835.22;5084640;28;20420;-70
2023/09/06 06:16:53;;;;;;;9.50;5.93;;;;;;;21.01;51.68;97829.50;5075763;28;20853;-70
2023/09/06 06:19:19;;;;;;;12.23;6.33;;;;;;;21.11;50.78;97834.41;5082468;28;20459;-71
2023/09/06 06:21:45;;;;;;;8.23;6.37;;;;;;;21.25;51.08;97837.91;5078506;28;20200;-72
2023/09/06 06:24:12;;;;;;;11.17;6.23;;;;;;;21.37;50.60;97834.63;5072044;28;20274;-70
2023/09/06 06:26:37;;;;;;;13.63;5.70;;;;;;;21.47;50.75;97832.34;5083514;28;20965;-70
2023/09/06 06:29:03;;;;;;;7.30;5.83;;;;;;;21.62;50.61;97834.81;5073561;28;20448;-71
2023/09/06 06:31:28;;;;;;;7.37;5.80;;;;;;;21.68;50.56;97838.47;5082877;28;20197;-73
2023/09/06 06:33:54;;;;;;;11.17;6.30;;;;;;;21.80;50.34;97831.47;5080283;28;20194;-72
2023/09/06 06:36:21;;;;;;;7.97;6.10;;;;;;;21.89;50.18;97835.56;5081093;28;20213;-70
2023/09/06 06:38:46;;;;;;;9.73;5.83;;;;;;;22.00;50.08;97838.63;5077679;28;20550;-70
2023/09/06 06:41:22;;;;;;;7.20;5.70;;;;;;;22.14;49.41;97832.19;5082385;28;20519;-72
2023/09/06 06:43:47;;;;;;;13.60;6.40;;;;;;;22.23;49.02;97835.47;5055721;28;20198;-70
2023/09/06 06:46:33;;;;;;;11.93;7.10;;;;;;;22.34;48.68;97836.63;5080010;28;20462;-74
2023/09/06 06:48:59;;;;;;;7.40;5.97;;;;;;;22.45;48.58;97835.97;5081921;28;20639;-74
2023/09/06 06:51:38;;;;;;;8.33;6.77;;;;;;;22.58;48.14;97836.94;5081607;28;20442;-71
2023/09/06 06:54:08;;;;;;;9.13;7.07;;;;;;;22.68;48.14;97831.97;5067160;28;20493;-70
2023/09/06 06:56:34;;;;;;;10.07;6.20;;;;;;;22.84;47.90;97836.75;5061382;28;20516;-74
2023/09/06 06:59:00;;;;;;;9.93;6.83;;;;;;;22.97;47.83;97840.38;5077471;28;21543;-72
2023/09/06 07:01:27;;;;;;;6.27;5.60;;;;;;;23.10;47.71;97832.25;5084249;28;20533;-71
2023/09/06 07:03:53;;;;;;;7.87;6.30;;;;;;;23.25;47.75;97836.50;5072638;28;20237;-70
2023/09/06 07:06:18;;;;;;;12.30;6.70;;;;;;;23.35;47.26;97841.34;5078264;28;20469;-74
2023/09/06 07:08:44;;;;;;;9.80;5.77;;;;;;;23.47;47.13;97844.94;5081145;28;20428;-74
2023/09/06 07:11:09;;;;;;;10.13;5.83;;;;;;;23.47;45.48;97835.06;5082925;28;20198;-71
2023/09/06 07:13:34;;;;;;;6.40;5.43;;;;;;;23.55;45.35;97849.19;5075440;28;20291;-72
2023/09/06 07:16:00;;;;;;;11.73;6.63;;;;;;;23.60;44.12;97850.19;5082378;28;20252;-72
2023/09/06 07:18:26;;;;;;;8.40;5.87;;;;;;;23.69;44.68;97848.00;5080419;28;20186;-71
2023/09/06 07:20:51;;;;;;;8.23;5.80;;;;;;;23.69;44.11;97848.00;5074329;28;20221;-72
2023/09/06 07:23:17;;;;;;;7.47;6.37;;;;;;;23.83;44.33;97843.34;5087125;28;20185;-72
2023/09/06 07:25:46;;;;;;;7.53;5.90;;;;;;;24.02;44.48;97846.03;5075412;28;20225;-72
2023/09/06 07:28:13;;;;;;;9.70;5.97;;;;;;;24.14;44.29;97849.59;5085958;28;20284;-72
2023/09/06 07:30:38;;;;;;;12.73;5.47;;;;;;;24.37;44.25;97848.13;5076416;28;20475;-71
2023/09/06 07:33:04;;;;;;;8.60;6.13;;;;;;;24.37;43.56;97853.47;5079377;28;21087;-71
2023/09/06 07:35:29;;;;;;;8.20;6.33;;;;;;;24.26;44.34;97856.91;5082234;28;20609;-72
2023/09/06 07:37:55;;;;;;;9.13;6.70;;;;;;;24.49;43.93;97853.50;5068462;28;20191;-72
2023/09/06 07:40:20;;;;;;;9.03;6.50;;;;;;;24.60;43.63;97842.00;5081929;28;20297;-71
2023/09/06 07:42:46;;;;;;;9.63;6.20;;;;;;;24.78;43.25;97845.72;5061881;28;20251;-71
2023/09/06 07:45:12;;;;;;;10.60;7.73;;;;;;;25.06;43.11;97845.09;5080743;28;20213;-70
2023/09/06 07:47:37;;;;;;;9.70;6.23;;;;;;;25.25;42.30;97848.50;5069258;28;20186;-70
2023/09/06 07:50:05;;;;;;;11.97;4.93;;;;;;;25.46;41.97;97848.97;5066264;28;20183;-72
2023/09/06 07:52:30;;;;;;;8.77;5.17;;;;;;;25.65;41.11;97836.25;5079948;28;20214;-72
2023/09/06 07:54:56;;;;;;;9.00;6.57;;;;;;;25.83;40.70;97843.38;5087142;28;20859;-70
2023/09/06 07:57:21;;;;;;;6.60;5.40;;;;;;;25.83;40.65;97843.38;5077842;28;20190;-70
2023/09/06 07:59:47;;;;;;;8.00;5.00;;;;;;;26.00;40.54;97842.63;5084714;28;20241;-70
2023/09/06 08:02:12;;;;;;;8.67;5.23;;;;;;;26.14;39.43;97840.56;5079592;28;20186;-71
2023/09/06 08:04:38;;;;;;;6.77;5.13;;;;;;;26.40;39.61;97843.75;5076726;28;20194;-70
2023/09/06 08:07:03;;;;;;;6.00;4.90;;;;;;;26.44;39.53;97840.31;5087283;28;20977;-70
2023/09/06 08:09:29;;;;;;;6.07;5.47;;;;;;;26.56;39.15;97851.00;5085079;28;20562;-71
2023/09/06 08:11:54;;;;;;;9.03;5.80;;;;;;;26.59;39.30;97855.09;5088048;28;20186;-71
2023/09/06 08:14:20;;;;;;;8.27;5.43;;;;;;;26.56;39.10;97853.69;5084254;28;20186;-69
2023/09/06 08:16:45;;;;;;;7.50;5.67;;;;;;;26.74;39.12;97863.44;5079773;28;20221;-72
2023/09/06 08:19:10;;;;;;;5.37;4.40;;;;;;;26.92;38.69;97853.56;5077701;28;20301;-71
2023/09/06 08:21:37;;;;;;;6.67;5.97;;;;;;;27.12;38.29;97870.03;5073493;28;20374;-72
2023/09/06 08:24:03;;;;;;;7.40;5.17;;;;;;;27.35;38.65;97862.84;5081335;28;20190;-71
2023/09/06 08:26:29;;;;;;;11.90;5.30;;;;;;;27.54;38.27;97868.81;5077296;28;20452;-71
2023/09/06 08:28:54;;;;;;;16.83;5.67;;;;;;;27.71;37.53;97868.00;5070362;28;20448;-72
2023/09/06 08:31:20;;;;;;;8.70;5.00;;;;;;;27.61;37.23;97865.16;5084454;28;20269;-72
2023/09/06 08:33:46;;;;;;;10.57;5.40;;;;;;;27.70;37.33;97861.81;5072105;28;20771;-73
2023/09/06 08:36:11;;;;;;;16.53;10.60;;;;;;;28.02;36.67;97861.13;5086898;28;20205;-72
2023/09/06 08:38:39;;;;;;;7.87;5.20;;;;;;;28.01;36.67;97864.88;5080682;28;20214;-72
2023/09/06 08:41:05;;;;;;;17.77;4.50;;;;;;;28.01;37.08;97864.88;5082457;28;20182;-74
2023/09/06 08:43:35;;;;;;;7.20;5.43;;;;;;;28.25;37.72;97866.56;5056165;28;20467;-72
2023/09/06 08:46:05;;;;;;;8.93;4.73;;;;;;;28.50;35.81;97856.06;5087270;28;20455;-74
2023/09/06 08:48:31;;;;;;;12.23;5.20;;;;;;;28.78;35.87;97862.31;5067774;28;20427;-71
2023/09/06 08:50:57;;;;;;;12.37;4.70;;;;;;;28.96;35.47;97861.13;5072959;28;20462;-73
2023/09/06 08:53:22;;;;;;;11.70;5.53;;;;;;;29.09;35.21;97861.78;5088429;28;20189;-71
2023/09/06 08:55:48;;;;;;;5.83;4.67;;;;;;;29.22;34.87;97866.75;5081744;28;20269;-70
2023/09/06 08:58:14;;;;;;;16.90;8.90;;;;;;;29.42;34.67;97859.88;5062379;28;20204;-70
2023/09/06 09:00:42;;;;;;;5.67;5.17;;;;;;;29.46;33.84;97858.31;5078361;28;20514;-70
2023/09/06 09:03:07;;;;;;;6.43;5.10;;;;;;;29.61;34.39;97867.59;5088968;28;20267;-69
2023/09/06 09:05:33;;;;;;;5.73;5.10;;;;;;;29.65;34.05;97864.09;5087260;28;20448;-70
2023/09/06 09:08:00;;;;;;;8.80;5.50;;;;;;;29.83;33.98;97859.31;5086335;28;20623;-70
2023/09/06 09:10:28;;;;;;;7.40;4.90;;;;;;;29.93;33.65;97853.16;5080702;28;20277;-70
2023/09/06 09:12:56;;;;;;;7.03;4.70;;;;;;;30.12;33.19;97862.44;5071176;28;20427;-70
2023/09/06 09:15:22;;;;;;;8.57;5.33;;;;;;;30.24;32.61;97864.94;5088687;28;21034;-71
2023/09/06 09:17:51;;;;;;;8.53;4.30;;;;;;;30.36;32.88;97862.03;5085471;28;20463;-72
2023/09/06 09:20:17;;;;;;;5.30;4.80;;;;;;;30.34;33.34;97862.25;5055637;28;20467;-72
2023/09/06 09:22:44;;;;;;;7.00;5.13;;;;;;;30.49;32.52;97864.22;5035948;28;20444;-72
2023/09/06 09:25:15;;;;;;;5.23;4.73;;;;;;;30.45;32.16;97862.28;5089296;28;20573;-71
2023/09/06 09:27:44;;;;;;;8.47;4.87;;;;;;;30.13;32.67;97864.06;5082596;28;20927;-71
2023/09/06 09:30:11;;;;;;;6.13;4.33;;;;;;;29.90;33.13;97859.91;5091284;28;20514;-70
2023/09/06 09:32:38;;;;;;;4.50;4.10;;;;;;;30.11;33.61;97860.84;5089097;28;20478;-71
2023/09/06 09:35:04;;;;;;;6.07;4.87;;;;;;;30.32;32.09;97860.91;5082723;28;20827;-71
2023/09/06 09:37:30;;;;;;;5.70;4.10;;;;;;;30.53;32.47;97860.97;5067656;28;20987;-71
2023/09/06 09:39:56;;;;;;;6.10;4.17;;;;;;;30.76;31.93;97859.69;5082573;28;20468;-71
2023/09/06 09:42:22;;;;;;;5.90;4.47;;;;;;;30.92;32.07;97861.34;5086359;28;20439;-70
2023/09/06 09:45:00;;;;;;;7.33;5.27;;;;;;;31.13;31.95;97847.84;5085789;28;20458;-70
2023/09/06 09:47:27;;;;;;;4.77;4.33;;;;;;;31.12;31.92;97853.50;5077386;28;20185;-72
2023/09/06 09:49:54;;;;;;;9.10;4.30;;;;;;;31.22;31.84;97845.41;5083614;28;20467;-71
2023/09/06 09:52:20;;;;;;;7.37;4.20;;;;;;;31.23;31.64;97849.75;5079044;28;20437;-72
2023/09/06 09:54:47;;;;;;;11.50;4.37;;;;;;;31.37;31.91;97848.09;5056256;28;20428;-71
2023/09/06 09:57:13;;;;;;;5.70;4.17;;;;;;;31.47;31.31;97851.88;5074813;28;20285;-71
2023/09/06 09:59:40;;;;;;;5.63;4.70;;;;;;;31.55;31.47;97843.19;5086230;28;20494;-71
2023/09/06 10:02:07;;;;;;;5.17;3.90;;;;;;;31.78;31.06;97849.09;5084643;28;20496;-72
2023/09/06 10:04:42;;;;;;;6.20;4.60;;;;;;;31.92;30.89;97847.44;5075804;28;20457;-72
2023/09/06 10:07:08;;;;;;;5.60;5.10;;;;;;;32.10;30.82;97853.34;5040420;28;20526;-71
2023/09/06 10:09:38;;;;;;;6.60;5.10;;;;;;;32.11;30.44;97852.25;5081989;28;20470;-70
2023/09/06 10:12:07;;;;;;;6.97;5.20;;;;;;;32.24;30.34;97857.09;5063323;28;20437;-71
2023/09/06 10:14:33;;;;;;;8.80;4.40;;;;;;;32.30;30.20;97845.13;5077121;28;21063;-71
2023/09/06 10:16:59;;;;;;;6.23;4.17;;;;;;;32.39;30.37;97849.97;5078394;28;20444;-71
2023/09/06 10:19:24;;;;;;;4.93;4.43;;;;;;;32.47;30.09;97846.69;5060127;28;20467;-71
2023/09/06 10:21:50;;;;;;;5.60;4.20;;;;;;;32.50;29.93;97846.13;5084709;28;20559;-71
2023/09/06 10:24:22;;;;;;;9.53;8.37;;;;;;;32.50;30.49;97851.56;5083560;28;20626;-75
2023/09/06 10:26:49;;;;;;;7.13;5.00;;;;;;;32.50;30.39;97848.84;5079716;28;20448;-73
2023/09/06 10:29:24;;;;;;;8.30;4.60;;;;;;;32.63;30.26;97840.09;5077141;28;20432;-73
2023/09/06 10:31:51;;;;;;;6.87;4.60;;;;;;;32.69;30.22;97849.00;5077087;28;20435;-71
2023/09/06 10:34:18;;;;;;;6.23;4.03;;;;;;;32.73;30.19;97843.81;5063984;28;20435;-71
2023/09/06 10:36:57;;;;;;;4.90;4.40;;;;;;;32.60;30.17;97837.09;5079421;28;20472;-71
2023/09/06 10:39:25;;;;;;;9.40;4.90;;;;;;;32.65;29.92;97839.78;5083845;28;20586;-69
2023/09/06 10:42:13;;;;;;;7.43;3.60;;;;;;;32.70;30.49;97833.50;5081705;28;20481;-70
2023/09/06 10:44:54;;;;;;;4.93;4.43;;;;;;;32.63;30.37;97834.66;5076218;28;20427;-70
2023/09/06 10:47:33;;;;;;;7.00;4.07;;;;;;;32.68;30.11;97833.81;5072740;28;20444;-70
2023/09/06 10:50:18;;;;;;;5.90;4.00;;;;;;;32.81;30.66;97826.94;5070225;28;20439;-70
2023/09/06 10:52:50;;;;;;;5.23;4.67;;;;;;;33.03;30.66;97831.09;5072984;28;20916;-70
2023/09/06 10:55:20;;;;;;;7.77;4.07;;;;;;;33.18;30.49;97830.19;5059126;28;20452;-71
2023/09/06 10:57:54;;;;;;;4.57;4.17;;;;;;;33.30;30.90;97827.06;5080128;28;20481;-71
2023/09/06 11:00:25;;;;;;;5.30;3.97;;;;;;;33.33;30.20;97823.78;5083930;28;20495;-71
2023/09/06 11:03:06;;;;;;;5.60;3.73;;;;;;;33.24;30.36;97827.13;5079507;28;20436;-72
2023/09/06 11:05:35;;;;;;;4.67;4.13;;;;;;;33.21;31.15;97827.69;5074986;28;20444;-70
2023/09/06 11:08:00;;;;;;;3.93;3.53;;;;;;;33.32;30.95;97827.59;5083779;28;20846;-71
2023/09/06 11:10:26;;;;;;;4.73;4.33;;;;;;;33.42;30.33;97821.31;5080960;28;20436;-69
2023/09/06 11:12:54;;;;;;;5.60;4.60;;;;;;;33.57;30.25;97817.59;5072498;28;20646;-69
2023/09/06 11:15:19;;;;;;;6.27;4.43;;;;;;;33.67;30.76;97817.47;5059680;28;20206;-71
2023/09/06 11:17:45;;;;;;;4.60;4.20;;;;;;;33.76;30.30;97815.78;5074642;28;20433;-69
2023/09/06 11:20:12;;;;;;;8.17;4.37;;;;;;;33.80;30.42;97816.78;5057678;28;20210;-71
2023/09/06 11:22:48;;;;;;;5.03;4.23;;;;;;;33.73;29.47;97807.38;5076128;28;20201;-70
2023/09/06 11:25:23;;;;;;;5.20;4.33;;;;;;;33.85;30.56;97814.03;5082953;28;20469;-69
2023/09/06 11:27:50;;;;;;;6.33;4.63;;;;;;;33.90;29.23;97806.94;5076475;28;20518;-69
2023/09/06 11:30:18;;;;;;;7.40;4.20;;;;;;;33.92;29.48;97802.00;5081262;28;20412;-70
2023/09/06 11:32:51;;;;;;;5.27;4.27;;;;;;;33.95;29.38;97806.88;5084804;28;20479;-69